Aeroporto :
LOGIN :

Iscrizione | Disclaimer

   EN    FR    IT 

 










Sommario :    VFR   VFR Marginale   IFR   IFR Intensivo   IFR Molto Intensivo
Visibilità : 
Base nubi : 
>= 8 km
>= 3000ft
5 / 8 km
1000 / 3000 ft
1500m / 5 km
500 / 1000 ft
800 / 1500m
200 / 500 ft
< 800m
< 200 ft
Simboli :   Temporali  Nebbia  Neve Forte  Precipitazioni Forti  Vento > 20 kt
SIGMETs :   Varie  Temporali  Ghiacco  Turbolenza  Onda orograficha  Ceneri Vulcaniche






- Altitudine del aeroporto : 18 ft


LIPC - Cervia AFB Ravenna

ULTIMO METAR :
  • 220802Z VRB02KT 1800 BR SCT001 07/04 Q1013 RMK BKN VIS MIN 1800 WIND THR11 ///// KT WIND THR29 25002KT YLO

METARs OBSOLETI :
  • 220755Z 24002KT 1200 R11/1400U BR SCT001 07/04 Q1013
  • 220655Z 24003KT 0800 R11/P1500 FG SCT001 06/03 Q1013
  • 220555Z 28002KT 0400 R11/0800 FG BKN001 05/03 Q1013 RMK OVC SCT070 VIS MIN 0400 WIND THR11 /////KT WIND THR29 28002KT RED

TAF TAF LIPC
Valido dal 22 a 06 ore il 22 a 15 ore UTC


220500Z 2206/2215 25004KT 1200 BR BKN010
TEMPO 2206/2209 0200 FG OVC001
BECMG 2209/2211 3000 BR



MetMap, La meteo Aeronautica in un colpo d'occhio ! - Copyright ORBIFLY Dicembre 2007 - Disclaimer

ORBIFLY MET'MAP TEAM :

Programmazione e sviluppo : Alexandra Zaïnal
Concezione e sviluppo : Baudouin d'Aumeries
Co-Programmazione e sviluppo : Marc-Olivier Méhu
Supporto tecnico e logistico : Manuel Goepfert
Aiuto per la traduzione : Arnaldo La Scala

Contatto : metmap@orbifly.com




FONTI E CREDITI :

   NOAA